Tuesday, January 16, 2018, 6:53 AM EST
Back to Local

KPEO, Penn Yan Airport

Location: Penn Yan, NY, United States Lat: 42.65
Local Time: 6:53 AM EST (11:53 GMT) Lon: -77.05
Time Zone: US/Eastern Elev: 977 ft

Show me the last for .
Show Decoded

2018-01-16 06:43 METAR KPEO 161143Z AUTO 20008KT 2SM -SN OVC050 M06/M08 A3033 RMK AO2 P0000
                 T10561083 =
2018-01-16 06:33 METAR KPEO 161133Z AUTO 20008KT 2 1/2SM -SN OVC055 M06/M08 A3033 RMK AO2 P0000
                 T10561083 =
2018-01-16 06:13 METAR KPEO 161113Z AUTO 20009KT 3SM -SN OVC048 M06/M08 A3033 RMK AO2 P0000
                 T10561083 =
2018-01-16 06:01 METAR KPEO 161101Z AUTO 20009KT 2SM -SN OVC042 M05/M08 A3033 RMK AO2 P0000
                 T10501078 =
2018-01-16 05:53 METAR KPEO 161053Z AUTO 21008KT 4SM -SN OVC044 M05/M08 A3032 RMK AO2 SLP285
                 P0000 T10501078 =
2018-01-16 05:37 METAR KPEO 161037Z AUTO 20008KT 2 1/2SM -SN BR OVC046 M06/M08 A3032 RMK AO2
                 P0000 T10561078 =
2018-01-16 05:32 METAR KPEO 161032Z AUTO 20010KT 1 3/4SM -SN BR OVC044 M06/M08 A3032 RMK AO2
                 P0000 T10561078 =
2018-01-16 04:53 METAR KPEO 160953Z AUTO 20007KT 1 1/4SM -SN BR OVC025 M06/M08 A3031 RMK AO2
                 SLP282 P0000 T10561078 =
2018-01-16 04:02 METAR KPEO 160902Z AUTO 21008KT 1 1/2SM -SN BR OVC028 M06/M08 A3031 RMK AO2
                 P0000 T10561078 =
2018-01-16 03:53 METAR KPEO 160853Z AUTO 20008KT 1 1/2SM -SN OVC031 M06/M08 A3032 RMK AO2 SLP283
                 P0000 60001 T10561083 50001 =
2018-01-16 03:39 METAR KPEO 160839Z AUTO 20008KT 1 3/4SM -SN BKN035 OVC044 M06/M08 A3032 RMK AO2
                 P0000 T10561083 =
2018-01-16 03:15 METAR KPEO 160815Z AUTO 20009KT 2 1/2SM -SN OVC040 M06/M08 A3032 RMK AO2 P0000
                 T10561083 =
2018-01-16 03:08 METAR KPEO 160808Z AUTO 20007KT 1 3/4SM -SN OVC034 M06/M08 A3032 RMK AO2 P0000
                 T10561083 =
2018-01-16 02:53 METAR KPEO 160753Z AUTO 20008KT 1 3/4SM -SN OVC028 M06/M08 A3032 RMK AO2 SLP284
                 P0000 T10561083 =
2018-01-16 02:45 METAR KPEO 160745Z AUTO 20008KT 2SM -SN OVC028 M06/M08 A3032 RMK AO2 P0000
                 T10561083 =
2018-01-16 02:27 METAR KPEO 160727Z AUTO 21007KT 1 3/4SM -SN OVC033 M06/M08 A3032 RMK AO2 P0000
                 T10561083 =
2018-01-16 02:09 METAR KPEO 160709Z AUTO 20008KT 2 1/2SM -SN OVC035 M06/M08 A3032 RMK AO2 P0000
                 T10561083 =
2018-01-16 01:53 METAR KPEO 160653Z AUTO 19008KT 2SM -SN OVC035 M06/M08 A3032 RMK AO2 SLP284
                 P0001 T10561083 =
2018-01-16 01:40 METAR KPEO 160640Z AUTO 20009KT 1 3/4SM -SN OVC035 M06/M08 A3031 RMK AO2 P0001
                 T10561083 =
2018-01-16 01:30 METAR KPEO 160630Z AUTO 20009KT 2SM -SN OVC035 M06/M08 A3032 RMK AO2 P0001
                 T10561083 =
2018-01-16 01:12 METAR KPEO 160612Z AUTO 21009KT 1 3/4SM -SN OVC038 M06/M08 A3031 RMK AO2 P0000
                 T10561083 =
2018-01-16 01:01 METAR KPEO 160601Z AUTO 21008KT 2SM -SN OVC044 M06/M08 A3031 RMK AO2 P0000
                 T10561083 =
2018-01-16 00:53 METAR KPEO 160553Z AUTO 20010KT 3SM -SN OVC046 M06/M08 A3031 RMK AO2 SLP283
                 P0000 60003 T10561083 11056 21067 58013 =
2018-01-16 00:37 METAR KPEO 160537Z AUTO 20009KT 2 1/2SM -SN OVC038 M06/M08 A3032 RMK AO2 P0000
                 T10561083 =
2018-01-16 00:24 METAR KPEO 160524Z AUTO 20010KT 1 3/4SM -SN OVC032 M06/M08 A3032 RMK AO2 P0000
                 T10561083 =
2018-01-16 00:19 METAR KPEO 160519Z AUTO 20009KT 2 1/2SM -SN OVC034 M06/M08 A3032 RMK AO2 P0000
                 T10561083 =
2018-01-16 00:10 METAR KPEO 160510Z AUTO 20010KT 2SM -SN OVC034 M06/M08 A3033 RMK AO2 P0000
                 T10561083 =
2018-01-15 23:53 METAR KPEO 160453Z AUTO 20009KT 1 1/2SM -SN OVC030 M06/M08 A3033 RMK AO2 SLP288
                 P0000 T10561083 410561233 =
2018-01-15 23:21 METAR KPEO 160421Z AUTO 21008KT 1SM -SN BR VV019 M06/M08 A3034 RMK AO2 P0000
                 T10611083 RVRNO =
2018-01-15 23:11 METAR KPEO 160411Z AUTO 21008KT 3/4SM -SN BR VV016 M06/M08 A3034 RMK AO2 P0000
                 T10611083 RVRNO =
2018-01-15 23:01 METAR KPEO 160401Z AUTO 21006KT 1SM -SN VV018 M06/M09 A3035 RMK AO2 P0000
                 T10611089 RVRNO =
2018-01-15 22:53 METAR KPEO 160353Z AUTO 22005KT 3/4SM -SN BR VV016 M06/M08 A3035 RMK AO2 SLP296
                 P0002 T10611083 RVRNO =
2018-01-15 22:41 METAR KPEO 160341Z AUTO 22004KT 1SM -SN BR VV015 M06/M08 A3035 RMK AO2 P0002
                 T10611083 RVRNO =
2018-01-15 22:17 METAR KPEO 160317Z AUTO 25003KT 3/4SM -SN BR VV014 M07/M09 A3036 RMK AO2 P0001
                 T10671089 RVRNO =
2018-01-15 22:09 METAR KPEO 160309Z AUTO 22003KT 1SM -SN BR VV015 M06/M08 A3036 RMK AO2 P0001
                 T10611083 RVRNO =
2018-01-15 21:53 METAR KPEO 160253Z AUTO 19003KT 3/4SM -SN BR VV011 M07/M09 A3035 RMK AO2 SLP299
                 P0001 60001 T10671089 56008 RVRNO =
2018-01-15 21:29 METAR KPEO 160229Z AUTO 20003KT 3/4SM -SN BR VV012 M07/M09 A3036 RMK AO2 P0001
                 T10671089 RVRNO =
2018-01-15 20:53 METAR KPEO 160153Z AUTO 19003KT 1 1/2SM -SN OVC024 M07/M09 A3036 RMK AO2 SLP303
                 P0000 T10671094 =
2018-01-15 20:51 METAR KPEO 160151Z AUTO 20003KT 1 1/2SM -SN OVC026 M07/M10 A3036 RMK AO2 P0000 =
2018-01-15 20:42 METAR KPEO 160142Z AUTO 18004KT 2SM -SN OVC026 M07/M10 A3036 RMK AO2 P0000
                 T10671100 =
2018-01-15 20:24 METAR KPEO 160124Z AUTO 16006KT 2SM -SN OVC036 M07/M10 A3036 RMK AO2 P0000
                 T10671100 =
2018-01-15 20:03 METAR KPEO 160103Z AUTO 17007KT 4SM -SN OVC042 M07/M11 A3038 RMK AO2 P0000
                 T10671106 =
2018-01-15 19:53 METAR KPEO 160053Z AUTO 17008KT 2 1/2SM -SN OVC034 M07/M11 A3038 RMK AO2 SNB33
                 SLP310 P0000 T10671106 =
2018-01-15 19:39 METAR KPEO 160039Z AUTO 16008KT 2SM -SN OVC038 M07/M11 A3038 RMK AO2 SNB33 P0000
                 T10671111 =
2018-01-15 18:53 METAR KPEO 152353Z AUTO 16008KT 10SM OVC065 M07/M12 A3039 RMK AO2 SLP313
                 T10671117 11067 21078 56010 =
2018-01-15 17:53 METAR KPEO 152253Z AUTO 15006KT 10SM OVC065 M07/M12 A3040 RMK AO2 SLP318
                 T10721122 =
2018-01-15 16:53 METAR KPEO 152153Z AUTO 14009KT 10SM OVC080 M07/M13 A3039 RMK AO2 SLP314
                 T10721128 =
2018-01-15 15:53 METAR KPEO 152053Z AUTO 13007KT 10SM FEW060 OVC075 M07/M13 A3042 RMK AO2 SLP323
                 T10721128 56012 =
2018-01-15 14:53 METAR KPEO 151953Z AUTO 14010KT 7SM FEW075 OVC090 M07/M13 A3042 RMK AO2 SLP324
                 T10721133 =
2018-01-15 13:53 METAR KPEO 151853Z AUTO 13006KT 10SM BKN120 M07/M14 A3042 RMK AO2 SLP323
                 T10721139 =
2018-01-15 12:53 METAR KPEO 151753Z AUTO VRB03KT 10SM CLR M08/M15 A3045 RMK AO2 SLP336 I6001
                 T10781150 11078 21233 58033 =
2018-01-15 11:53 METAR KPEO 151653Z AUTO 00000KT 10SM CLR M11/M14 A3051 RMK AO2 SLP355 T11061144
                 =
2018-01-15 10:53 METAR KPEO 151553Z AUTO 14011KT 10SM CLR M11/M18 A3054 RMK AO2 SLP368 I1000
                 T11061178 =
2018-01-15 09:53 METAR KPEO 151453Z AUTO 26003KT 10SM CLR M14/M17 A3055 RMK AO2 SLP374 I1001
                 I3001 T11441167 58007 =
2018-01-15 08:53 METAR KPEO 151353Z AUTO 00000KT 7SM CLR M17/M19 A3056 RMK AO2 SLP379 I1000
                 T11671194 =
2018-01-15 07:53 METAR KPEO 151253Z AUTO 00000KT 10SM CLR M21/M23 A3056 RMK AO2 SLP381 T12111233
                 =
2018-01-15 06:53 METAR KPEO 151153Z AUTO 00000KT 10SM CLR M20/M23 A3057 RMK AO2 SLP384 I1000
                 I6000 T12001233 11167 21217 58003 =

Support USWX by starting your Amazon purchase here.